• Join FlightAware (Why Join?)
  • Login
  • US Flag 
02:44AM EDT


 

Airport Tracker/Info


-or-


 

Live Flight TrackerFlight Track Log ✈ CES2376 ✈ 08-Feb-2014 ✈ ZLGM / GOQ - ZLXY / XIY

Flight Track Log - Related Links

Times and Time Zones

All times are in EST time to prevent confusion due to time zone crossing. See the CES2376 flight status page for this flight to view local times or setup timezone preferences in your user account.

Time Position Orientation Groundspeed Altitude Reporting Facility
EST Latitude Longitude Course Direction KTS MPH feet Rate Location/Type
09:14AM 35.3774 103.5332 96° East  Level Estimated
09:15AM 35.3574 103.6619 101° East  Level Estimated
09:16AM 35.3372 103.7905 101° East  Level Estimated
09:17AM 35.3169 103.9191 101° East  Level Estimated
09:18AM 35.2965 104.0476 101° East  Level Estimated
09:19AM 35.2760 104.1760 101° East  Level Estimated
09:20AM 35.2552 104.3043 101° East  Level Estimated
09:21AM 35.2344 104.4326 101° East  Level Estimated
09:22AM 35.2135 104.5609 101° East  Level Estimated
09:23AM 35.1923 104.6890 101° East  Level Estimated
09:24AM 35.1711 104.8171 101° East  Level Estimated
09:25AM 35.1497 104.9451 102° East  Level Estimated
09:26AM 35.1282 105.0731 102° East  Level Estimated
09:27AM 35.1066 105.2010 102° East  Level Estimated
09:28AM 35.0848 105.3288 102° East  Level Estimated
09:29AM 35.0629 105.4566 102° East  Level Estimated
09:30AM 35.0409 105.5843 102° East  Level Estimated
09:31AM 35.0187 105.7119 102° East  Level Estimated
09:32AM 34.9964 105.8394 102° East  Level Estimated
09:33AM 34.9739 105.9669 102° East  Level Estimated
09:34AM 34.9514 106.0943 102° East  Level Estimated
09:35AM 34.9286 106.2216 102° East  Level Estimated
09:36AM 34.9058 106.3489 102° East  Level Estimated
09:37AM 34.8828 106.4761 102° East  Level Estimated
09:38AM 34.8597 106.6032 102° East  Level Estimated
09:39AM 34.8365 106.7303 103° East  Level Estimated
09:40AM 34.8131 106.8573 103° East  Level Estimated
09:41AM 34.7896 106.9842 103° East  Level Estimated
09:42AM 34.7660 107.1110 103° East  Level Estimated
09:43AM 34.7422 107.2378 103° East  Level Estimated
09:44AM 34.7183 107.3645 103° East  Level Estimated
09:45AM 34.6943 107.4911 103° East  Level Estimated
09:46AM 34.6701 107.6176 103° East  Level Estimated
09:47AM 34.6458 107.7441 103° East  Level Estimated
09:48AM 34.6214 107.8705 103° East  Level Estimated
09:49AM 34.5968 107.9968 103° East  Level Estimated
09:50AM 34.5722 108.1230 103° East  Level Estimated
09:51AM 34.5474 108.2492 103° East  Level Estimated
09:52AM 34.5224 108.3753 103° East  Level Estimated
09:53AM 34.4973 108.5013 104° East  Level Estimated
09:54AM 34.4721 108.6273 104° East  Level Estimated
09:55AM 34.4471 108.7516 104° East  Level Estimated
09:56AM 34.4471 108.7516 121° Southeast  Level Estimated
09:57AM 34.4471 108.7516 121° Southeast  Level Estimated
09:58AM 34.4471 108.7516 121° Southeast  Level Estimated
09:59AM 34.4471 108.7516 121° Southeast  Level Estimated
10:00AM 34.4471 108.7516 121° Southeast  Level Estimated
10:01AM 34.4471 108.7516 121° Southeast  Level Estimated
10:02AM 34.4471 108.7516 121° Southeast  Level Estimated
10:03AM 34.4471 108.7516 121° Southeast  Level Estimated
10:04AM 34.4471 108.7516 121° Southeast  Level Estimated
10:05AM 34.4471 108.7516 121° Southeast  Level Estimated
10:06AM 34.4471 108.7516 121° Southeast  Level Estimated
10:07AM 34.4471 108.7516 121° Southeast  Level Estimated
10:08AM 34.4471 108.7516 121° Southeast  Level Estimated
10:09AM 34.4471 108.7516 121° Southeast  Level Estimated
10:10AM 34.4471 108.7516 121° Southeast  Level Estimated
10:11AM 34.4471 108.7516 121° Southeast  Level Estimated